sensor_id;sensor_type;location;lat;lon;timestamp;P1;durP1;ratioP1;P2;durP2;ratioP2
41631;SDS011;37452;51.938;4.624;2023-07-20T00:02:05;6.82;;;4.00;;
41631;SDS011;37452;51.938;4.624;2023-07-20T00:04:32;5.60;;;3.53;;
41631;SDS011;37452;51.938;4.624;2023-07-20T00:06:57;5.25;;;3.58;;
41631;SDS011;37452;51.938;4.624;2023-07-20T00:09:24;7.10;;;3.90;;
41631;SDS011;37452;51.938;4.624;2023-07-20T00:11:50;6.97;;;4.25;;
41631;SDS011;37452;51.938;4.624;2023-07-20T00:14:16;6.93;;;4.05;;
41631;SDS011;37452;51.938;4.624;2023-07-20T00:16:43;8.50;;;4.05;;
41631;SDS011;37452;51.938;4.624;2023-07-20T00:19:08;9.18;;;4.50;;
41631;SDS011;37452;51.938;4.624;2023-07-20T00:21:35;11.93;;;4.38;;
41631;SDS011;37452;51.938;4.624;2023-07-20T00:24:01;9.80;;;4.05;;
41631;SDS011;37452;51.938;4.624;2023-07-20T00:26:26;9.13;;;5.20;;
41631;SDS011;37452;51.938;4.624;2023-07-20T00:28:51;8.38;;;5.03;;
41631;SDS011;37452;51.938;4.624;2023-07-20T00:31:17;7.95;;;4.82;;
41631;SDS011;37452;51.938;4.624;2023-07-20T00:33:42;9.05;;;5.20;;
41631;SDS011;37452;51.938;4.624;2023-07-20T00:36:07;9.63;;;5.28;;
41631;SDS011;37452;51.938;4.624;2023-07-20T00:38:33;8.43;;;5.72;;
41631;SDS011;37452;51.938;4.624;2023-07-20T00:40:58;12.02;;;6.32;;
41631;SDS011;37452;51.938;4.624;2023-07-20T00:43:23;10.50;;;6.40;;
41631;SDS011;37452;51.938;4.624;2023-07-20T00:45:49;10.65;;;6.05;;
41631;SDS011;37452;51.938;4.624;2023-07-20T00:48:14;11.45;;;5.40;;
41631;SDS011;37452;51.938;4.624;2023-07-20T00:50:40;6.40;;;3.50;;
41631;SDS011;37452;51.938;4.624;2023-07-20T00:53:06;6.18;;;4.18;;
41631;SDS011;37452;51.938;4.624;2023-07-20T00:55:32;5.13;;;3.25;;
41631;SDS011;37452;51.938;4.624;2023-07-20T00:57:59;5.68;;;2.88;;
41631;SDS011;37452;51.938;4.624;2023-07-20T01:00:25;5.00;;;3.03;;
41631;SDS011;37452;51.938;4.624;2023-07-20T01:02:50;5.68;;;2.60;;
41631;SDS011;37452;51.938;4.624;2023-07-20T01:05:16;6.07;;;2.58;;
41631;SDS011;37452;51.938;4.624;2023-07-20T01:13:07;5.60;;;2.83;;
41631;SDS011;37452;51.938;4.624;2023-07-20T01:15:35;4.88;;;2.08;;
41631;SDS011;37452;51.938;4.624;2023-07-20T01:18:00;3.85;;;2.10;;
41631;SDS011;37452;51.938;4.624;2023-07-20T01:20:26;3.83;;;1.92;;
41631;SDS011;37452;51.938;4.624;2023-07-20T01:28:35;4.70;;;1.95;;
41631;SDS011;37452;51.938;4.624;2023-07-20T01:33:52;3.75;;;1.90;;
41631;SDS011;37452;51.938;4.624;2023-07-20T01:36:21;6.70;;;1.95;;
41631;SDS011;37452;51.938;4.624;2023-07-20T01:38:49;3.83;;;1.90;;
41631;SDS011;37452;51.938;4.624;2023-07-20T01:41:14;3.35;;;1.67;;
41631;SDS011;37452;51.938;4.624;2023-07-20T01:43:40;7.80;;;2.40;;
41631;SDS011;37452;51.938;4.624;2023-07-20T01:46:05;2.30;;;1.52;;
41631;SDS011;37452;51.938;4.624;2023-07-20T01:48:31;4.40;;;1.88;;
41631;SDS011;37452;51.938;4.624;2023-07-20T01:50:56;2.97;;;1.20;;
41631;SDS011;37452;51.938;4.624;2023-07-20T01:53:22;2.58;;;1.45;;
41631;SDS011;37452;51.938;4.624;2023-07-20T01:55:47;3.42;;;1.42;;
41631;SDS011;37452;51.938;4.624;2023-07-20T01:58:12;4.28;;;1.90;;
41631;SDS011;37452;51.938;4.624;2023-07-20T02:00:38;3.33;;;1.67;;
41631;SDS011;37452;51.938;4.624;2023-07-20T02:03:03;2.83;;;1.75;;
41631;SDS011;37452;51.938;4.624;2023-07-20T02:05:29;3.08;;;1.60;;
41631;SDS011;37452;51.938;4.624;2023-07-20T02:07:54;3.45;;;1.88;;
41631;SDS011;37452;51.938;4.624;2023-07-20T02:10:20;3.65;;;2.13;;
41631;SDS011;37452;51.938;4.624;2023-07-20T02:12:45;5.68;;;2.30;;
41631;SDS011;37452;51.938;4.624;2023-07-20T02:15:11;7.13;;;2.13;;
41631;SDS011;37452;51.938;4.624;2023-07-20T02:17:38;8.25;;;2.40;;
41631;SDS011;37452;51.938;4.624;2023-07-20T02:20:06;4.05;;;1.90;;
41631;SDS011;37452;51.938;4.624;2023-07-20T02:22:33;4.60;;;2.00;;
41631;SDS011;37452;51.938;4.624;2023-07-20T02:24:59;3.75;;;1.90;;
41631;SDS011;37452;51.938;4.624;2023-07-20T02:27:24;4.20;;;2.03;;
41631;SDS011;37452;51.938;4.624;2023-07-20T02:29:49;5.53;;;2.55;;
41631;SDS011;37452;51.938;4.624;2023-07-20T02:32:15;4.85;;;2.88;;
41631;SDS011;37452;51.938;4.624;2023-07-20T02:34:40;4.90;;;2.97;;
41631;SDS011;37452;51.938;4.624;2023-07-20T02:37:06;6.38;;;2.83;;
41631;SDS011;37452;51.938;4.624;2023-07-20T02:39:31;7.82;;;2.30;;
41631;SDS011;37452;51.938;4.624;2023-07-20T02:41:57;4.43;;;2.70;;
41631;SDS011;37452;51.938;4.624;2023-07-20T02:44:22;4.05;;;2.75;;
41631;SDS011;37452;51.938;4.624;2023-07-20T02:46:48;5.28;;;2.80;;
41631;SDS011;37452;51.938;4.624;2023-07-20T02:49:14;5.18;;;3.00;;
41631;SDS011;37452;51.938;4.624;2023-07-20T02:51:40;4.05;;;2.60;;
41631;SDS011;37452;51.938;4.624;2023-07-20T02:54:06;5.40;;;2.95;;
41631;SDS011;37452;51.938;4.624;2023-07-20T02:56:31;5.75;;;3.15;;
41631;SDS011;37452;51.938;4.624;2023-07-20T02:58:57;5.28;;;2.95;;
41631;SDS011;37452;51.938;4.624;2023-07-20T03:01:22;5.53;;;2.67;;
41631;SDS011;37452;51.938;4.624;2023-07-20T03:03:47;5.05;;;2.65;;
41631;SDS011;37452;51.938;4.624;2023-07-20T03:06:13;4.13;;;2.33;;
41631;SDS011;37452;51.938;4.624;2023-07-20T03:08:39;4.03;;;2.63;;
41631;SDS011;37452;51.938;4.624;2023-07-20T03:11:06;5.85;;;2.70;;
41631;SDS011;37452;51.938;4.624;2023-07-20T03:13:31;4.60;;;3.35;;
41631;SDS011;37452;51.938;4.624;2023-07-20T03:15:57;19.95;;;3.60;;
41631;SDS011;37452;51.938;4.624;2023-07-20T03:18:22;5.63;;;2.95;;
41631;SDS011;37452;51.938;4.624;2023-07-20T03:20:47;4.20;;;2.47;;
41631;SDS011;37452;51.938;4.624;2023-07-20T03:23:13;4.22;;;2.58;;
41631;SDS011;37452;51.938;4.624;2023-07-20T03:25:40;5.72;;;2.80;;
41631;SDS011;37452;51.938;4.624;2023-07-20T03:28:05;4.20;;;2.75;;
41631;SDS011;37452;51.938;4.624;2023-07-20T03:30:31;6.82;;;2.58;;
41631;SDS011;37452;51.938;4.624;2023-07-20T03:32:56;6.75;;;2.80;;
41631;SDS011;37452;51.938;4.624;2023-07-20T03:35:21;5.20;;;2.90;;
41631;SDS011;37452;51.938;4.624;2023-07-20T03:37:47;4.78;;;3.13;;
41631;SDS011;37452;51.938;4.624;2023-07-20T03:40:12;4.38;;;2.70;;
41631;SDS011;37452;51.938;4.624;2023-07-20T03:42:39;5.95;;;2.80;;
41631;SDS011;37452;51.938;4.624;2023-07-20T03:45:05;3.88;;;2.50;;
41631;SDS011;37452;51.938;4.624;2023-07-20T03:47:31;4.15;;;2.28;;
41631;SDS011;37452;51.938;4.624;2023-07-20T03:49:56;4.45;;;2.42;;
41631;SDS011;37452;51.938;4.624;2023-07-20T03:52:22;6.43;;;2.38;;
41631;SDS011;37452;51.938;4.624;2023-07-20T03:54:48;2.70;;;1.70;;
41631;SDS011;37452;51.938;4.624;2023-07-20T03:57:13;2.92;;;1.83;;
41631;SDS011;37452;51.938;4.624;2023-07-20T03:59:39;2.78;;;1.73;;
41631;SDS011;37452;51.938;4.624;2023-07-20T04:02:04;3.30;;;1.83;;
41631;SDS011;37452;51.938;4.624;2023-07-20T04:04:30;3.05;;;1.63;;
41631;SDS011;37452;51.938;4.624;2023-07-20T04:06:56;3.17;;;1.83;;
41631;SDS011;37452;51.938;4.624;2023-07-20T04:09:22;2.78;;;1.33;;
41631;SDS011;37452;51.938;4.624;2023-07-20T04:11:47;5.35;;;1.38;;
41631;SDS011;37452;51.938;4.624;2023-07-20T04:14:12;3.35;;;1.65;;
41631;SDS011;37452;51.938;4.624;2023-07-20T04:16:38;3.38;;;1.88;;
41631;SDS011;37452;51.938;4.624;2023-07-20T04:19:03;4.40;;;2.05;;
41631;SDS011;37452;51.938;4.624;2023-07-20T04:21:29;4.85;;;2.08;;
41631;SDS011;37452;51.938;4.624;2023-07-20T04:23:54;4.25;;;2.35;;
41631;SDS011;37452;51.938;4.624;2023-07-20T04:26:19;3.53;;;1.73;;
41631;SDS011;37452;51.938;4.624;2023-07-20T04:28:45;3.45;;;2.20;;
41631;SDS011;37452;51.938;4.624;2023-07-20T04:31:11;3.30;;;1.90;;
41631;SDS011;37452;51.938;4.624;2023-07-20T04:33:37;3.03;;;2.03;;
41631;SDS011;37452;51.938;4.624;2023-07-20T04:36:03;4.80;;;1.65;;
41631;SDS011;37452;51.938;4.624;2023-07-20T04:38:28;2.70;;;1.83;;
41631;SDS011;37452;51.938;4.624;2023-07-20T04:40:53;3.78;;;2.00;;
41631;SDS011;37452;51.938;4.624;2023-07-20T04:43:19;3.88;;;1.75;;
41631;SDS011;37452;51.938;4.624;2023-07-20T04:45:44;4.05;;;1.85;;
41631;SDS011;37452;51.938;4.624;2023-07-20T04:48:10;3.22;;;2.17;;
41631;SDS011;37452;51.938;4.624;2023-07-20T04:50:38;4.28;;;1.67;;
41631;SDS011;37452;51.938;4.624;2023-07-20T04:53:05;3.13;;;2.00;;
41631;SDS011;37452;51.938;4.624;2023-07-20T04:55:30;5.05;;;2.00;;
41631;SDS011;37452;51.938;4.624;2023-07-20T04:57:55;4.10;;;1.85;;
41631;SDS011;37452;51.938;4.624;2023-07-20T05:00:21;3.45;;;2.10;;
41631;SDS011;37452;51.938;4.624;2023-07-20T05:02:46;3.83;;;1.60;;
41631;SDS011;37452;51.938;4.624;2023-07-20T05:05:13;4.05;;;1.70;;
41631;SDS011;37452;51.938;4.624;2023-07-20T05:07:40;3.10;;;1.90;;
41631;SDS011;37452;51.938;4.624;2023-07-20T05:10:05;6.95;;;1.70;;
41631;SDS011;37452;51.938;4.624;2023-07-20T05:12:31;3.42;;;1.65;;
41631;SDS011;37452;51.938;4.624;2023-07-20T05:14:56;2.70;;;1.40;;
41631;SDS011;37452;51.938;4.624;2023-07-20T05:17:22;2.90;;;1.63;;
41631;SDS011;37452;51.938;4.624;2023-07-20T05:19:47;2.95;;;0.90;;
41631;SDS011;37452;51.938;4.624;2023-07-20T05:22:15;1.80;;;0.98;;
41631;SDS011;37452;51.938;4.624;2023-07-20T05:24:41;2.17;;;1.20;;
41631;SDS011;37452;51.938;4.624;2023-07-20T05:27:07;4.93;;;1.08;;
41631;SDS011;37452;51.938;4.624;2023-07-20T05:29:32;3.40;;;1.13;;
41631;SDS011;37452;51.938;4.624;2023-07-20T05:31:58;3.17;;;1.00;;
41631;SDS011;37452;51.938;4.624;2023-07-20T05:34:23;1.98;;;1.10;;
41631;SDS011;37452;51.938;4.624;2023-07-20T05:36:49;3.75;;;1.00;;
41631;SDS011;37452;51.938;4.624;2023-07-20T05:39:16;3.13;;;1.10;;
41631;SDS011;37452;51.938;4.624;2023-07-20T05:41:42;2.70;;;0.88;;
41631;SDS011;37452;51.938;4.624;2023-07-20T05:44:07;1.65;;;0.77;;
41631;SDS011;37452;51.938;4.624;2023-07-20T05:46:32;2.72;;;1.02;;
41631;SDS011;37452;51.938;4.624;2023-07-20T05:48:58;4.30;;;1.00;;
41631;SDS011;37452;51.938;4.624;2023-07-20T05:51:23;3.42;;;1.10;;
41631;SDS011;37452;51.938;4.624;2023-07-20T05:53:48;2.65;;;1.20;;
41631;SDS011;37452;51.938;4.624;2023-07-20T05:56:14;3.55;;;1.17;;
41631;SDS011;37452;51.938;4.624;2023-07-20T05:58:39;2.25;;;1.17;;
41631;SDS011;37452;51.938;4.624;2023-07-20T06:01:04;5.10;;;1.33;;
41631;SDS011;37452;51.938;4.624;2023-07-20T06:03:33;2.45;;;1.20;;
41631;SDS011;37452;51.938;4.624;2023-07-20T06:05:59;5.43;;;1.80;;
41631;SDS011;37452;51.938;4.624;2023-07-20T06:08:26;6.03;;;1.90;;
41631;SDS011;37452;51.938;4.624;2023-07-20T06:10:51;4.03;;;1.55;;
41631;SDS011;37452;51.938;4.624;2023-07-20T06:13:17;2.78;;;1.30;;
41631;SDS011;37452;51.938;4.624;2023-07-20T06:15:42;2.08;;;1.23;;
41631;SDS011;37452;51.938;4.624;2023-07-20T06:18:08;4.25;;;1.67;;
41631;SDS011;37452;51.938;4.624;2023-07-20T06:20:34;3.22;;;1.27;;
41631;SDS011;37452;51.938;4.624;2023-07-20T06:22:59;2.88;;;1.10;;
41631;SDS011;37452;51.938;4.624;2023-07-20T06:25:25;3.08;;;1.27;;
41631;SDS011;37452;51.938;4.624;2023-07-20T06:27:50;3.13;;;1.10;;
41631;SDS011;37452;51.938;4.624;2023-07-20T06:30:19;2.80;;;0.93;;
41631;SDS011;37452;51.938;4.624;2023-07-20T06:32:44;1.95;;;1.05;;
41631;SDS011;37452;51.938;4.624;2023-07-20T06:35:10;4.72;;;1.13;;
41631;SDS011;37452;51.938;4.624;2023-07-20T06:37:35;1.05;;;0.70;;
41631;SDS011;37452;51.938;4.624;2023-07-20T06:40:04;1.50;;;0.80;;
41631;SDS011;37452;51.938;4.624;2023-07-20T06:42:30;1.23;;;0.68;;
41631;SDS011;37452;51.938;4.624;2023-07-20T06:44:56;2.45;;;0.77;;
41631;SDS011;37452;51.938;4.624;2023-07-20T06:47:22;1.48;;;0.80;;
41631;SDS011;37452;51.938;4.624;2023-07-20T06:49:47;1.20;;;0.60;;
41631;SDS011;37452;51.938;4.624;2023-07-20T06:52:13;1.88;;;0.60;;
41631;SDS011;37452;51.938;4.624;2023-07-20T06:54:38;1.58;;;0.60;;
41631;SDS011;37452;51.938;4.624;2023-07-20T06:57:04;2.35;;;0.80;;
41631;SDS011;37452;51.938;4.624;2023-07-20T06:59:30;1.60;;;0.73;;
41631;SDS011;37452;51.938;4.624;2023-07-20T07:01:55;3.42;;;0.65;;
41631;SDS011;37452;51.938;4.624;2023-07-20T07:04:21;1.42;;;0.60;;
41631;SDS011;37452;51.938;4.624;2023-07-20T07:06:46;1.42;;;0.70;;
41631;SDS011;37452;51.938;4.624;2023-07-20T07:09:11;3.10;;;0.65;;
41631;SDS011;37452;51.938;4.624;2023-07-20T07:11:37;2.10;;;0.80;;
41631;SDS011;37452;51.938;4.624;2023-07-20T07:14:02;2.53;;;0.73;;
41631;SDS011;37452;51.938;4.624;2023-07-20T07:16:28;1.77;;;0.55;;
41631;SDS011;37452;51.938;4.624;2023-07-20T07:18:53;3.33;;;0.70;;
41631;SDS011;37452;51.938;4.624;2023-07-20T07:21:18;1.30;;;0.50;;
41631;SDS011;37452;51.938;4.624;2023-07-20T07:23:44;1.90;;;0.60;;
41631;SDS011;37452;51.938;4.624;2023-07-20T07:26:10;2.03;;;0.70;;
41631;SDS011;37452;51.938;4.624;2023-07-20T07:28:36;1.00;;;0.52;;
41631;SDS011;37452;51.938;4.624;2023-07-20T07:31:04;2.03;;;0.98;;
41631;SDS011;37452;51.938;4.624;2023-07-20T07:33:30;1.52;;;0.60;;
41631;SDS011;37452;51.938;4.624;2023-07-20T07:35:56;2.08;;;0.80;;
41631;SDS011;37452;51.938;4.624;2023-07-20T07:38:21;2.83;;;0.70;;
41631;SDS011;37452;51.938;4.624;2023-07-20T07:40:46;1.83;;;0.70;;
41631;SDS011;37452;51.938;4.624;2023-07-20T07:43:12;1.95;;;0.77;;
41631;SDS011;37452;51.938;4.624;2023-07-20T07:45:39;1.25;;;0.60;;
41631;SDS011;37452;51.938;4.624;2023-07-20T07:48:05;2.28;;;0.70;;
41631;SDS011;37452;51.938;4.624;2023-07-20T07:50:31;1.58;;;0.50;;
41631;SDS011;37452;51.938;4.624;2023-07-20T07:52:57;4.53;;;0.70;;
41631;SDS011;37452;51.938;4.624;2023-07-20T07:55:23;1.23;;;0.60;;
41631;SDS011;37452;51.938;4.624;2023-07-20T07:57:49;1.40;;;0.63;;
41631;SDS011;37452;51.938;4.624;2023-07-20T08:00:16;1.65;;;0.68;;
41631;SDS011;37452;51.938;4.624;2023-07-20T08:02:43;2.13;;;0.90;;
41631;SDS011;37452;51.938;4.624;2023-07-20T08:05:10;1.85;;;0.75;;
41631;SDS011;37452;51.938;4.624;2023-07-20T08:07:36;1.48;;;0.65;;
41631;SDS011;37452;51.938;4.624;2023-07-20T08:10:01;2.13;;;0.80;;
41631;SDS011;37452;51.938;4.624;2023-07-20T08:12:27;1.88;;;1.02;;
41631;SDS011;37452;51.938;4.624;2023-07-20T08:14:52;2.78;;;0.90;;
41631;SDS011;37452;51.938;4.624;2023-07-20T08:17:18;2.05;;;0.95;;
41631;SDS011;37452;51.938;4.624;2023-07-20T08:19:45;1.20;;;0.60;;
41631;SDS011;37452;51.938;4.624;2023-07-20T08:22:11;4.45;;;0.60;;
41631;SDS011;37452;51.938;4.624;2023-07-20T08:24:39;1.67;;;0.60;;
41631;SDS011;37452;51.938;4.624;2023-07-20T08:27:05;3.47;;;0.80;;
41631;SDS011;37452;51.938;4.624;2023-07-20T08:29:31;1.60;;;0.70;;
41631;SDS011;37452;51.938;4.624;2023-07-20T08:31:56;1.27;;;0.60;;
41631;SDS011;37452;51.938;4.624;2023-07-20T08:34:21;2.78;;;0.60;;
41631;SDS011;37452;51.938;4.624;2023-07-20T08:36:47;2.03;;;0.80;;
41631;SDS011;37452;51.938;4.624;2023-07-20T08:39:12;1.95;;;0.60;;
41631;SDS011;37452;51.938;4.624;2023-07-20T08:41:37;1.42;;;0.70;;
41631;SDS011;37452;51.938;4.624;2023-07-20T08:44:04;1.17;;;0.50;;
41631;SDS011;37452;51.938;4.624;2023-07-20T08:46:30;1.98;;;0.90;;
41631;SDS011;37452;51.938;4.624;2023-07-20T08:48:56;1.30;;;0.50;;
41631;SDS011;37452;51.938;4.624;2023-07-20T08:51:23;1.80;;;0.70;;
41631;SDS011;37452;51.938;4.624;2023-07-20T08:53:49;2.42;;;0.50;;
41631;SDS011;37452;51.938;4.624;2023-07-20T08:56:16;2.78;;;0.70;;
41631;SDS011;37452;51.938;4.624;2023-07-20T08:58:43;1.42;;;0.77;;
41631;SDS011;37452;51.938;4.624;2023-07-20T09:01:08;1.48;;;0.60;;
41631;SDS011;37452;51.938;4.624;2023-07-20T09:03:35;2.00;;;0.70;;
41631;SDS011;37452;51.938;4.624;2023-07-20T09:06:04;1.95;;;0.70;;
41631;SDS011;37452;51.938;4.624;2023-07-20T09:08:30;2.58;;;0.50;;
41631;SDS011;37452;51.938;4.624;2023-07-20T09:10:56;4.18;;;0.73;;
41631;SDS011;37452;51.938;4.624;2023-07-20T09:13:21;3.45;;;0.85;;
41631;SDS011;37452;51.938;4.624;2023-07-20T09:15:47;1.75;;;0.80;;
41631;SDS011;37452;51.938;4.624;2023-07-20T09:18:14;2.13;;;0.60;;
41631;SDS011;37452;51.938;4.624;2023-07-20T09:20:49;1.45;;;0.80;;
41631;SDS011;37452;51.938;4.624;2023-07-20T09:23:14;1.73;;;0.70;;
41631;SDS011;37452;51.938;4.624;2023-07-20T09:25:40;2.85;;;0.88;;
41631;SDS011;37452;51.938;4.624;2023-07-20T09:28:05;2.88;;;0.73;;
41631;SDS011;37452;51.938;4.624;2023-07-20T09:30:31;2.15;;;0.80;;
41631;SDS011;37452;51.938;4.624;2023-07-20T09:32:56;2.33;;;1.00;;
41631;SDS011;37452;51.938;4.624;2023-07-20T09:35:22;3.80;;;1.20;;
41631;SDS011;37452;51.938;4.624;2023-07-20T09:37:53;2.75;;;1.17;;
41631;SDS011;37452;51.938;4.624;2023-07-20T09:40:27;1.55;;;0.80;;
41631;SDS011;37452;51.938;4.624;2023-07-20T09:42:53;1.90;;;0.80;;
41631;SDS011;37452;51.938;4.624;2023-07-20T09:45:41;1.38;;;0.93;;
41631;SDS011;37452;51.938;4.624;2023-07-20T09:48:07;3.83;;;0.80;;
41631;SDS011;37452;51.938;4.624;2023-07-20T09:50:33;2.03;;;0.77;;
41631;SDS011;37452;51.938;4.624;2023-07-20T09:53:04;2.92;;;0.90;;
41631;SDS011;37452;51.938;4.624;2023-07-20T09:55:29;1.45;;;0.60;;
41631;SDS011;37452;51.938;4.624;2023-07-20T09:57:56;2.60;;;0.80;;
41631;SDS011;37452;51.938;4.624;2023-07-20T10:00:21;2.15;;;0.93;;
41631;SDS011;37452;51.938;4.624;2023-07-20T10:02:47;1.83;;;1.00;;
41631;SDS011;37452;51.938;4.624;2023-07-20T10:05:16;4.15;;;1.20;;
41631;SDS011;37452;51.938;4.624;2023-07-20T10:07:44;1.98;;;0.85;;
41631;SDS011;37452;51.938;4.624;2023-07-20T10:10:15;2.55;;;1.30;;
41631;SDS011;37452;51.938;4.624;2023-07-20T10:12:44;2.75;;;1.15;;
41631;SDS011;37452;51.938;4.624;2023-07-20T10:15:18;2.70;;;1.10;;
41631;SDS011;37452;51.938;4.624;2023-07-20T10:18:07;2.20;;;0.95;;
41631;SDS011;37452;51.938;4.624;2023-07-20T10:20:39;1.70;;;0.88;;
41631;SDS011;37452;51.938;4.624;2023-07-20T10:23:09;2.67;;;0.80;;
41631;SDS011;37452;51.938;4.624;2023-07-20T10:25:35;3.10;;;1.02;;
41631;SDS011;37452;51.938;4.624;2023-07-20T10:28:06;3.17;;;0.90;;
41631;SDS011;37452;51.938;4.624;2023-07-20T10:30:35;3.13;;;1.30;;
41631;SDS011;37452;51.938;4.624;2023-07-20T10:33:02;2.08;;;1.05;;
41631;SDS011;37452;51.938;4.624;2023-07-20T10:35:28;1.83;;;0.85;;
41631;SDS011;37452;51.938;4.624;2023-07-20T10:37:54;2.53;;;0.98;;
41631;SDS011;37452;51.938;4.624;2023-07-20T10:40:32;2.58;;;0.90;;
41631;SDS011;37452;51.938;4.624;2023-07-20T10:48:04;3.78;;;1.08;;
41631;SDS011;37452;51.938;4.624;2023-07-20T10:50:31;2.35;;;1.20;;
41631;SDS011;37452;51.938;4.624;2023-07-20T10:53:31;2.45;;;1.10;;
41631;SDS011;37452;51.938;4.624;2023-07-20T10:55:49;3.00;;;1.30;;
41631;SDS011;37452;51.938;4.624;2023-07-20T10:58:31;1.95;;;1.25;;
41631;SDS011;37452;51.938;4.624;2023-07-20T11:00:57;2.17;;;0.95;;
41631;SDS011;37452;51.938;4.624;2023-07-20T11:03:32;3.28;;;1.05;;
41631;SDS011;37452;51.938;4.624;2023-07-20T11:08:50;1.63;;;0.90;;
41631;SDS011;37452;51.938;4.624;2023-07-20T11:11:24;1.60;;;0.80;;
41631;SDS011;37452;51.938;4.624;2023-07-20T11:13:56;0.85;;;0.57;;
41631;SDS011;37452;51.938;4.624;2023-07-20T11:16:32;2.65;;;0.85;;
41631;SDS011;37452;51.938;4.624;2023-07-20T11:19:05;2.67;;;1.17;;
41631;SDS011;37452;51.938;4.624;2023-07-20T11:21:35;2.13;;;0.90;;
41631;SDS011;37452;51.938;4.624;2023-07-20T11:24:02;1.25;;;0.60;;
41631;SDS011;37452;51.938;4.624;2023-07-20T11:26:29;0.85;;;0.47;;
41631;SDS011;37452;51.938;4.624;2023-07-20T11:28:54;1.05;;;0.50;;
41631;SDS011;37452;51.938;4.624;2023-07-20T11:31:19;3.53;;;0.77;;
41631;SDS011;37452;51.938;4.624;2023-07-20T11:33:46;3.40;;;0.95;;
41631;SDS011;37452;51.938;4.624;2023-07-20T11:36:12;1.85;;;0.77;;
41631;SDS011;37452;51.938;4.624;2023-07-20T11:38:39;2.28;;;0.80;;
41631;SDS011;37452;51.938;4.624;2023-07-20T11:41:06;1.42;;;0.60;;
41631;SDS011;37452;51.938;4.624;2023-07-20T11:43:32;1.15;;;0.47;;
41631;SDS011;37452;51.938;4.624;2023-07-20T11:45:57;2.00;;;0.63;;
41631;SDS011;37452;51.938;4.624;2023-07-20T11:48:23;1.27;;;0.50;;
41631;SDS011;37452;51.938;4.624;2023-07-20T11:50:48;4.47;;;0.90;;
41631;SDS011;37452;51.938;4.624;2023-07-20T11:53:14;9.93;;;0.93;;
41631;SDS011;37452;51.938;4.624;2023-07-20T11:55:40;1.75;;;0.63;;
41631;SDS011;37452;51.938;4.624;2023-07-20T11:58:07;5.97;;;0.85;;
41631;SDS011;37452;51.938;4.624;2023-07-20T12:00:34;2.60;;;0.70;;
41631;SDS011;37452;51.938;4.624;2023-07-20T12:03:00;2.08;;;0.65;;
41631;SDS011;37452;51.938;4.624;2023-07-20T12:05:26;2.05;;;0.70;;
41631;SDS011;37452;51.938;4.624;2023-07-20T12:07:51;3.25;;;0.50;;
41631;SDS011;37452;51.938;4.624;2023-07-20T12:10:22;0.95;;;0.50;;
41631;SDS011;37452;51.938;4.624;2023-07-20T12:17:49;1.45;;;0.70;;
41631;SDS011;37452;51.938;4.624;2023-07-20T12:20:32;1.30;;;0.43;;
41631;SDS011;37452;51.938;4.624;2023-07-20T12:25:37;4.82;;;0.70;;
41631;SDS011;37452;51.938;4.624;2023-07-20T12:28:07;0.55;;;0.35;;
41631;SDS011;37452;51.938;4.624;2023-07-20T12:30:35;1.92;;;0.60;;
41631;SDS011;37452;51.938;4.624;2023-07-20T12:33:02;1.00;;;0.63;;
41631;SDS011;37452;51.938;4.624;2023-07-20T12:35:27;1.30;;;0.60;;
41631;SDS011;37452;51.938;4.624;2023-07-20T12:37:53;2.00;;;0.60;;
41631;SDS011;37452;51.938;4.624;2023-07-20T12:40:19;1.23;;;0.70;;
41631;SDS011;37452;51.938;4.624;2023-07-20T12:42:44;1.85;;;0.40;;
41631;SDS011;37452;51.938;4.624;2023-07-20T12:45:10;5.55;;;1.08;;
41631;SDS011;37452;51.938;4.624;2023-07-20T12:47:36;1.10;;;0.70;;
41631;SDS011;37452;51.938;4.624;2023-07-20T12:50:01;3.58;;;0.98;;
41631;SDS011;37452;51.938;4.624;2023-07-20T12:52:29;1.92;;;0.65;;
41631;SDS011;37452;51.938;4.624;2023-07-20T12:54:54;1.42;;;0.68;;
41631;SDS011;37452;51.938;4.624;2023-07-20T12:57:20;2.05;;;0.80;;
41631;SDS011;37452;51.938;4.624;2023-07-20T12:59:45;1.00;;;0.47;;
41631;SDS011;37452;51.938;4.624;2023-07-20T13:02:10;2.65;;;0.55;;
41631;SDS011;37452;51.938;4.624;2023-07-20T13:04:36;1.02;;;0.60;;
41631;SDS011;37452;51.938;4.624;2023-07-20T13:07:01;1.17;;;0.52;;
41631;SDS011;37452;51.938;4.624;2023-07-20T13:09:26;3.75;;;0.90;;
41631;SDS011;37452;51.938;4.624;2023-07-20T13:11:52;1.70;;;0.70;;
41631;SDS011;37452;51.938;4.624;2023-07-20T13:14:17;2.88;;;0.77;;
41631;SDS011;37452;51.938;4.624;2023-07-20T13:16:43;1.92;;;0.68;;
41631;SDS011;37452;51.938;4.624;2023-07-20T13:19:08;4.55;;;0.70;;
41631;SDS011;37452;51.938;4.624;2023-07-20T13:21:34;0.95;;;0.40;;
41631;SDS011;37452;51.938;4.624;2023-07-20T13:23:59;1.42;;;0.60;;
41631;SDS011;37452;51.938;4.624;2023-07-20T13:26:24;2.58;;;0.80;;
41631;SDS011;37452;51.938;4.624;2023-07-20T13:28:50;1.38;;;0.68;;
41631;SDS011;37452;51.938;4.624;2023-07-20T13:31:15;1.60;;;0.60;;
41631;SDS011;37452;51.938;4.624;2023-07-20T13:33:42;1.45;;;0.57;;
41631;SDS011;37452;51.938;4.624;2023-07-20T13:36:07;2.15;;;0.85;;
41631;SDS011;37452;51.938;4.624;2023-07-20T13:38:33;0.95;;;0.57;;
41631;SDS011;37452;51.938;4.624;2023-07-20T13:40:58;1.83;;;0.65;;
41631;SDS011;37452;51.938;4.624;2023-07-20T13:43:23;2.97;;;0.82;;
41631;SDS011;37452;51.938;4.624;2023-07-20T13:45:51;1.10;;;0.63;;
41631;SDS011;37452;51.938;4.624;2023-07-20T13:48:16;1.77;;;0.70;;
41631;SDS011;37452;51.938;4.624;2023-07-20T13:50:44;3.17;;;0.50;;
41631;SDS011;37452;51.938;4.624;2023-07-20T13:53:10;1.20;;;0.38;;
41631;SDS011;37452;51.938;4.624;2023-07-20T13:55:35;3.55;;;0.70;;
41631;SDS011;37452;51.938;4.624;2023-07-20T13:58:02;3.72;;;0.50;;
41631;SDS011;37452;51.938;4.624;2023-07-20T14:00:27;0.82;;;0.50;;
41631;SDS011;37452;51.938;4.624;2023-07-20T14:02:57;2.30;;;0.70;;
41631;SDS011;37452;51.938;4.624;2023-07-20T14:05:23;2.13;;;0.60;;
41631;SDS011;37452;51.938;4.624;2023-07-20T14:07:48;0.75;;;0.40;;
41631;SDS011;37452;51.938;4.624;2023-07-20T14:10:15;1.60;;;0.52;;
41631;SDS011;37452;51.938;4.624;2023-07-20T14:12:40;1.52;;;0.50;;
41631;SDS011;37452;51.938;4.624;2023-07-20T14:15:05;6.97;;;0.60;;
41631;SDS011;37452;51.938;4.624;2023-07-20T14:17:31;0.70;;;0.45;;
41631;SDS011;37452;51.938;4.624;2023-07-20T14:19:56;1.25;;;0.50;;
41631;SDS011;37452;51.938;4.624;2023-07-20T14:22:22;1.20;;;0.68;;
41631;SDS011;37452;51.938;4.624;2023-07-20T14:24:48;1.30;;;0.52;;
41631;SDS011;37452;51.938;4.624;2023-07-20T14:27:13;1.80;;;0.50;;
41631;SDS011;37452;51.938;4.624;2023-07-20T14:29:38;1.33;;;0.50;;
41631;SDS011;37452;51.938;4.624;2023-07-20T14:32:04;2.97;;;0.43;;
41631;SDS011;37452;51.938;4.624;2023-07-20T14:34:31;2.58;;;0.50;;
41631;SDS011;37452;51.938;4.624;2023-07-20T14:36:58;2.08;;;0.50;;
41631;SDS011;37452;51.938;4.624;2023-07-20T14:39:24;1.27;;;0.57;;
41631;SDS011;37452;51.938;4.624;2023-07-20T14:41:49;1.20;;;0.68;;
41631;SDS011;37452;51.938;4.624;2023-07-20T14:44:15;0.40;;;0.30;;
41631;SDS011;37452;51.938;4.624;2023-07-20T14:46:41;3.33;;;0.40;;
41631;SDS011;37452;51.938;4.624;2023-07-20T14:49:06;1.50;;;0.47;;
41631;SDS011;37452;51.938;4.624;2023-07-20T14:51:32;1.17;;;0.35;;
41631;SDS011;37452;51.938;4.624;2023-07-20T14:53:58;2.00;;;0.57;;
41631;SDS011;37452;51.938;4.624;2023-07-20T14:56:24;1.13;;;0.40;;
41631;SDS011;37452;51.938;4.624;2023-07-20T14:58:49;1.10;;;0.32;;
41631;SDS011;37452;51.938;4.624;2023-07-20T15:01:14;1.17;;;0.50;;
41631;SDS011;37452;51.938;4.624;2023-07-20T15:03:40;1.90;;;0.50;;
41631;SDS011;37452;51.938;4.624;2023-07-20T15:06:09;1.70;;;0.60;;
41631;SDS011;37452;51.938;4.624;2023-07-20T15:08:36;2.08;;;0.50;;
41631;SDS011;37452;51.938;4.624;2023-07-20T15:11:01;2.45;;;0.40;;
41631;SDS011;37452;51.938;4.624;2023-07-20T15:13:26;4.15;;;0.52;;